Time;durP1;ratioP1;P1;durP2;ratioP2;P2;SDS_P1;SDS_P2;PMS_P1;PMS_P2;Temp;Humidity;BMP_temperature;BMP_pressure;BME280_temperature;BME280_humidity;BME280_pressure;Samples;Min_cycle;Max_cycle;Signal;HPM_P1;HPM_P2
2023/05/11 00:01:32;;;;;;;12.37;4.83;;;;;;;14.25;98.32;100866.41;5074861;28;20441;-67
2023/05/11 00:03:59;;;;;;;12.90;4.73;;;;;;;14.12;97.30;100861.91;5074305;28;20445;-67
2023/05/11 00:06:26;;;;;;;13.00;6.10;;;;;;;14.04;95.34;100863.53;5074425;28;20533;-68
2023/05/11 00:08:52;;;;;;;12.53;5.50;;;;;;;13.93;94.65;100864.13;5074535;28;20496;-68
2023/05/11 00:11:20;;;;;;;11.73;6.33;;;;;;;13.81;95.14;100859.28;5074751;28;20475;-67
2023/05/11 00:13:46;;;;;;;10.20;4.37;;;;;;;13.75;94.70;100860.56;5074577;28;20445;-68
2023/05/11 00:16:13;;;;;;;11.13;4.90;;;;;;;13.66;95.20;100860.53;5074489;28;20445;-68
2023/05/11 00:18:41;;;;;;;9.97;4.83;;;;;;;13.58;96.89;100858.56;5074170;28;20499;-67
2023/05/11 00:21:08;;;;;;;9.03;4.00;;;;;;;13.56;98.41;100855.38;5074071;28;20536;-67
2023/05/11 00:23:34;;;;;;;10.60;4.60;;;;;;;13.50;98.89;100857.44;5074299;28;20446;-67
2023/05/11 00:26:01;;;;;;;11.27;4.23;;;;;;;13.48;99.04;100859.66;5073901;28;21025;-67
2023/05/11 00:28:27;;;;;;;11.33;4.70;;;;;;;13.46;99.51;100856.44;5073864;28;20998;-67
2023/05/11 00:30:56;;;;;;;11.20;4.90;;;;;;;13.47;99.69;100865.41;5074186;28;20437;-67
2023/05/11 00:33:22;;;;;;;9.00;4.00;;;;;;;13.43;99.91;100857.06;5074132;28;20436;-67
2023/05/11 00:35:51;;;;;;;9.80;4.93;;;;;;;13.38;100.00;100858.00;5074057;28;20442;-67
2023/05/11 00:38:17;;;;;;;12.90;6.07;;;;;;;13.36;100.00;100852.06;5074108;28;20624;-67
2023/05/11 00:40:44;;;;;;;13.83;5.77;;;;;;;13.34;100.00;100854.31;5073619;28;20912;-67
2023/05/11 00:43:10;;;;;;;9.93;4.77;;;;;;;13.32;100.00;100853.00;5073689;28;20488;-67
2023/05/11 00:45:38;;;;;;;11.27;4.80;;;;;;;13.25;100.00;100860.81;5073819;28;20477;-69
2023/05/11 00:48:05;;;;;;;10.13;4.80;;;;;;;13.18;100.00;100860.41;5073574;28;20503;-68
2023/05/11 00:50:32;;;;;;;11.17;4.80;;;;;;;13.21;100.00;100860.59;5073782;28;20491;-68
2023/05/11 00:53:00;;;;;;;11.27;4.23;;;;;;;13.21;100.00;100855.16;5073326;28;20442;-69
2023/05/11 00:55:27;;;;;;;11.60;4.97;;;;;;;13.22;99.81;100853.25;5073712;28;20437;-68
2023/05/11 00:57:54;;;;;;;10.80;5.10;;;;;;;13.20;99.42;100853.56;5073720;28;20441;-68
2023/05/11 01:00:21;;;;;;;10.00;4.57;;;;;;;12.97;100.00;100851.97;5073614;28;20496;-67
2023/05/11 01:02:48;;;;;;;11.77;5.00;;;;;;;12.99;99.91;100852.47;5073291;28;20532;-69
2023/05/11 01:05:15;;;;;;;9.93;4.63;;;;;;;12.95;100.00;100849.56;5073517;28;20509;-68
2023/05/11 01:07:51;;;;;;;10.57;4.20;;;;;;;13.02;99.55;100838.28;5073494;28;20440;-69
2023/05/11 01:10:27;;;;;;;14.07;5.23;;;;;;;13.05;98.99;100841.16;5073501;28;20497;-69
2023/05/11 01:13:00;;;;;;;9.70;4.60;;;;;;;13.04;98.63;100849.63;5073530;28;20508;-69
2023/05/11 01:15:30;;;;;;;10.30;4.83;;;;;;;12.94;99.09;100842.53;5073511;28;20464;-68
2023/05/11 01:18:06;;;;;;;11.40;4.93;;;;;;;12.84;99.36;100850.97;5073440;28;20806;-68
2023/05/11 01:20:34;;;;;;;16.33;5.20;;;;;;;12.67;100.00;100843.47;5073338;28;20493;-69
2023/05/11 01:23:51;;;;;;;13.03;4.73;;;;;;;12.73;100.00;100839.50;5073359;28;20451;-67
2023/05/11 01:26:43;;;;;;;11.77;5.30;;;;;;;12.69;97.90;100854.81;5072980;28;20481;-67
2023/05/11 01:29:42;;;;;;;9.50;4.20;;;;;;;12.65;96.41;100844.88;5073209;28;20463;-67
2023/05/11 01:32:16;;;;;;;12.47;4.30;;;;;;;12.55;95.75;100848.66;5068976;28;20559;-67
2023/05/11 01:34:45;;;;;;;12.53;4.90;;;;;;;12.47;95.62;100852.09;5072892;28;20503;-67
2023/05/11 01:37:15;;;;;;;9.73;4.33;;;;;;;12.43;95.17;100854.63;5072924;28;20442;-67
2023/05/11 01:39:48;;;;;;;10.60;4.47;;;;;;;12.42;95.87;100858.44;5072814;28;20461;-67
2023/05/11 01:42:17;;;;;;;11.33;4.97;;;;;;;12.43;96.37;100853.81;5072794;28;20498;-67
2023/05/11 01:44:47;;;;;;;12.30;4.53;;;;;;;12.41;97.23;100865.00;5073101;28;20489;-67
2023/05/11 01:47:17;;;;;;;10.70;4.37;;;;;;;12.36;98.67;100859.69;5072850;28;20983;-67
2023/05/11 01:49:46;;;;;;;10.93;5.20;;;;;;;12.27;99.62;100862.31;5072740;28;20544;-68
2023/05/11 01:52:14;;;;;;;10.37;4.73;;;;;;;12.30;99.37;100861.69;5073057;28;20445;-67
2023/05/11 01:54:43;;;;;;;10.97;5.50;;;;;;;12.27;99.71;100858.81;5072701;28;20982;-67
2023/05/11 01:57:12;;;;;;;12.60;5.30;;;;;;;12.23;99.73;100874.09;5073047;28;20442;-67
2023/05/11 01:59:40;;;;;;;11.90;5.10;;;;;;;12.09;100.00;100871.41;5072584;28;20468;-67
2023/05/11 02:02:08;;;;;;;11.10;5.30;;;;;;;12.01;100.00;100872.13;5073015;28;20491;-67
2023/05/11 02:04:39;;;;;;;13.97;5.27;;;;;;;12.07;100.00;100870.88;5074330;28;20452;-68
2023/05/11 02:07:08;;;;;;;12.13;5.50;;;;;;;12.04;100.00;100876.91;5076752;28;20499;-68
2023/05/11 02:09:35;;;;;;;15.23;5.97;;;;;;;12.04;100.00;100875.03;5076957;28;20454;-68
2023/05/11 02:12:04;;;;;;;10.83;5.70;;;;;;;12.15;99.31;100880.25;5076903;28;20464;-68
2023/05/11 02:14:34;;;;;;;12.90;5.37;;;;;;;12.12;99.44;100878.94;5076880;28;20478;-68
2023/05/11 02:17:02;;;;;;;10.50;5.17;;;;;;;12.07;99.44;100887.97;5076499;28;20599;-68
2023/05/11 02:19:30;;;;;;;10.10;4.40;;;;;;;12.03;99.54;100891.59;5076650;28;20476;-68
2023/05/11 02:21:59;;;;;;;9.37;4.90;;;;;;;12.07;99.00;100887.19;5076743;28;20484;-68
2023/05/11 02:24:28;;;;;;;11.67;5.10;;;;;;;12.09;98.43;100890.41;5076609;28;20433;-68
2023/05/11 02:26:55;;;;;;;7.93;4.37;;;;;;;12.10;98.24;100889.31;5076553;28;20487;-68
2023/05/11 02:29:21;;;;;;;9.90;4.67;;;;;;;11.97;98.50;100884.69;5076532;28;20896;-68
2023/05/11 02:31:52;;;;;;;11.20;4.80;;;;;;;11.88;99.03;100887.31;5076572;28;20433;-68
2023/05/11 02:34:28;;;;;;;9.97;4.37;;;;;;;11.94;98.61;100888.81;5076204;28;20426;-68
2023/05/11 02:37:01;;;;;;;12.00;7.40;;;;;;;11.89;99.20;100893.53;5076477;28;20505;-68
2023/05/11 02:39:33;;;;;;;18.60;8.93;;;;;;;11.84;99.10;100881.66;5076360;28;20849;-68
2023/05/11 02:42:03;;;;;;;16.60;8.97;;;;;;;11.76;99.88;100890.47;5075859;28;20902;-71
2023/05/11 02:44:34;;;;;;;12.07;6.07;;;;;;;11.66;100.00;100890.69;5076046;28;20915;-71
2023/05/11 02:47:03;;;;;;;10.20;5.40;;;;;;;11.54;100.00;100895.78;5076258;28;20800;-73
2023/05/11 02:49:32;;;;;;;8.43;4.40;;;;;;;11.54;100.00;100890.38;5075766;28;20465;-71
2023/05/11 02:52:03;;;;;;;10.77;5.03;;;;;;;11.61;99.83;100879.94;5076119;28;20448;-70
2023/05/11 02:54:31;;;;;;;11.97;5.87;;;;;;;11.62;98.11;100887.75;5076130;28;20429;-70
2023/05/11 02:56:58;;;;;;;11.40;4.53;;;;;;;11.56;96.79;100885.47;5076027;28;20821;-70
2023/05/11 02:59:25;;;;;;;11.40;4.97;;;;;;;11.50;96.15;100889.34;5075981;28;20553;-70
2023/05/11 03:01:52;;;;;;;17.60;5.33;;;;;;;11.48;96.26;100888.84;5075628;28;20961;-70
2023/05/11 03:04:19;;;;;;;10.00;5.27;;;;;;;11.40;96.07;100890.34;5075516;28;20441;-70
2023/05/11 03:06:46;;;;;;;10.00;4.50;;;;;;;11.33;96.25;100890.75;5075765;28;20507;-70
2023/05/11 03:09:14;;;;;;;10.37;4.43;;;;;;;11.30;98.08;100888.63;5075690;28;20472;-69
2023/05/11 03:11:42;;;;;;;11.00;5.37;;;;;;;11.22;99.42;100889.31;5075438;28;20935;-69
2023/05/11 03:14:09;;;;;;;10.87;5.00;;;;;;;11.23;99.34;100890.91;5075697;28;20447;-70
2023/05/11 03:16:37;;;;;;;9.80;4.83;;;;;;;11.22;100.00;100886.59;5075185;28;20491;-70
2023/05/11 03:19:06;;;;;;;10.93;4.63;;;;;;;11.24;100.00;100889.81;5075518;28;20499;-70
2023/05/11 03:21:35;;;;;;;13.13;5.20;;;;;;;11.26;99.66;100890.31;5075574;28;20438;-70
2023/05/11 03:24:02;;;;;;;10.80;5.53;;;;;;;11.34;99.06;100888.84;5075281;28;20979;-69
2023/05/11 03:26:32;;;;;;;12.50;5.63;;;;;;;11.27;99.34;100894.63;5076464;28;20485;-70
2023/05/11 03:29:00;;;;;;;13.33;5.90;;;;;;;11.25;99.78;100893.34;5075080;28;20496;-69
2023/05/11 03:31:27;;;;;;;10.50;4.77;;;;;;;11.27;99.78;100894.63;5075410;28;20429;-70
2023/05/11 03:33:54;;;;;;;10.30;4.83;;;;;;;11.28;100.00;100888.09;5075324;28;20445;-69
2023/05/11 03:36:22;;;;;;;11.67;4.90;;;;;;;11.30;99.96;100885.91;5074970;28;20931;-70
2023/05/11 03:38:55;;;;;;;9.50;4.90;;;;;;;11.38;98.53;100889.84;5075167;28;20453;-69
2023/05/11 03:41:24;;;;;;;9.40;4.40;;;;;;;11.41;98.40;100886.53;5075304;28;20501;-70
2023/05/11 03:43:54;;;;;;;13.30;5.30;;;;;;;11.37;98.89;100886.31;5074843;28;20464;-70
2023/05/11 03:46:23;;;;;;;9.23;5.03;;;;;;;11.25;99.42;100896.84;5075067;28;20531;-69
2023/05/11 03:48:51;;;;;;;10.30;5.23;;;;;;;11.21;100.00;100893.13;5074699;28;20463;-70
2023/05/11 03:51:18;;;;;;;10.80;4.87;;;;;;;11.23;99.71;100892.81;5075021;28;20528;-69
2023/05/11 03:53:45;;;;;;;10.40;4.77;;;;;;;11.25;99.68;100894.16;5074651;28;20441;-69
2023/05/11 03:56:12;;;;;;;10.50;4.47;;;;;;;11.17;100.00;100889.41;5074605;28;20533;-69
2023/05/11 03:58:39;;;;;;;10.57;4.67;;;;;;;11.17;100.00;100894.81;5074818;28;20437;-69
2023/05/11 04:01:08;;;;;;;10.00;5.57;;;;;;;11.23;100.00;100880.06;5074847;28;20508;-69
2023/05/11 04:03:35;;;;;;;11.13;5.17;;;;;;;11.32;100.00;100883.69;5074799;28;20503;-69
2023/05/11 04:06:02;;;;;;;11.67;5.37;;;;;;;11.35;100.00;100883.09;5074363;28;20572;-69
2023/05/11 04:08:28;;;;;;;10.90;5.70;;;;;;;11.39;100.00;100888.75;5074302;28;20448;-69
2023/05/11 04:10:55;;;;;;;13.90;6.13;;;;;;;11.48;100.00;100891.56;5074331;28;21022;-69
2023/05/11 04:13:22;;;;;;;11.50;5.50;;;;;;;11.53;100.00;100889.56;5074589;28;20491;-69
2023/05/11 04:15:48;;;;;;;12.13;5.83;;;;;;;11.60;100.00;100891.91;5074538;28;20444;-69
2023/05/11 04:18:16;;;;;;;11.90;5.20;;;;;;;11.72;100.00;100886.75;5074491;28;20445;-69
2023/05/11 04:20:43;;;;;;;16.20;6.43;;;;;;;11.74;100.00;100889.19;5074339;28;20821;-69
2023/05/11 04:23:09;;;;;;;16.47;6.50;;;;;;;11.80;100.00;100894.19;5074369;28;20529;-70
2023/05/11 04:25:36;;;;;;;14.60;6.47;;;;;;;11.86;100.00;100895.75;5074253;28;20481;-70
2023/05/11 04:28:02;;;;;;;12.77;6.40;;;;;;;11.92;100.00;100899.16;5073439;28;20444;-70
2023/05/11 04:30:29;;;;;;;15.40;6.70;;;;;;;12.00;100.00;100903.91;5073857;28;20457;-70
2023/05/11 04:32:56;;;;;;;12.57;6.80;;;;;;;12.10;100.00;100897.44;5074141;28;20442;-70
2023/05/11 04:35:24;;;;;;;11.73;5.93;;;;;;;12.20;100.00;100907.28;5073826;28;20989;-70
2023/05/11 04:37:51;;;;;;;13.20;6.57;;;;;;;12.30;100.00;100899.72;5074070;28;20864;-70
2023/05/11 04:40:18;;;;;;;10.33;6.50;;;;;;;12.45;100.00;100901.31;5073979;28;20462;-69
2023/05/11 04:42:44;;;;;;;16.43;6.13;;;;;;;12.57;100.00;100900.75;5073865;28;20461;-69
2023/05/11 04:45:11;;;;;;;12.10;6.60;;;;;;;12.72;100.00;100913.22;5073854;28;20437;-70
2023/05/11 04:47:38;;;;;;;12.10;5.63;;;;;;;12.79;100.00;100908.97;5073765;28;20481;-70
2023/05/11 04:50:05;;;;;;;12.93;5.90;;;;;;;12.91;100.00;100905.69;5073835;28;20453;-70
2023/05/11 04:52:33;;;;;;;12.90;6.33;;;;;;;13.00;100.00;100920.13;5073786;28;20438;-69
2023/05/11 04:55:00;;;;;;;13.33;5.90;;;;;;;13.09;100.00;100909.31;5073745;28;20445;-69
2023/05/11 04:57:27;;;;;;;14.43;6.60;;;;;;;13.14;100.00;100914.63;5073705;28;20446;-70
2023/05/11 04:59:53;;;;;;;11.00;5.93;;;;;;;13.27;100.00;100923.88;5073540;28;20471;-69
2023/05/11 05:02:20;;;;;;;12.40;5.93;;;;;;;13.38;100.00;100919.78;5073356;28;20455;-69
2023/05/11 05:04:46;;;;;;;15.40;6.57;;;;;;;13.49;99.91;100928.47;5073273;28;20441;-70
2023/05/11 05:07:13;;;;;;;9.70;5.37;;;;;;;13.57;99.07;100925.81;5073706;28;20486;-69
2023/05/11 05:09:41;;;;;;;15.63;5.93;;;;;;;13.67;98.43;100924.72;5073427;28;20552;-69
2023/05/11 05:12:08;;;;;;;12.97;5.87;;;;;;;13.78;96.98;100922.56;5073531;28;20472;-70
2023/05/11 05:14:34;;;;;;;10.17;5.13;;;;;;;13.89;96.06;100923.88;5073183;28;20502;-69
2023/05/11 05:17:01;;;;;;;11.73;5.00;;;;;;;13.99;95.28;100931.78;5073409;28;20441;-70
2023/05/11 05:19:27;;;;;;;12.97;5.93;;;;;;;14.08;94.21;100932.59;5072972;28;20461;-69
2023/05/11 05:21:54;;;;;;;12.13;5.00;;;;;;;14.21;92.99;100936.31;5073398;28;20476;-69
2023/05/11 05:24:20;;;;;;;12.40;5.50;;;;;;;14.29;91.06;100930.06;5073352;28;20442;-69
2023/05/11 05:26:48;;;;;;;9.37;4.80;;;;;;;14.44;90.00;100933.47;5073232;28;20477;-70
2023/05/11 05:29:15;;;;;;;9.97;4.50;;;;;;;14.52;88.86;100924.53;5073261;28;20457;-70
2023/05/11 05:31:41;;;;;;;10.67;5.10;;;;;;;14.62;88.00;100932.41;5073209;28;20571;-70
2023/05/11 05:34:08;;;;;;;10.67;4.27;;;;;;;14.73;87.38;100930.97;5072793;28;21037;-70
2023/05/11 05:36:35;;;;;;;17.30;4.80;;;;;;;14.81;86.33;100932.09;5072944;28;20819;-70
2023/05/11 05:39:02;;;;;;;11.50;4.40;;;;;;;14.91;85.40;100942.66;5072604;28;20552;-70
2023/05/11 05:41:29;;;;;;;10.90;4.40;;;;;;;14.97;83.79;100938.69;5073200;28;20453;-70
2023/05/11 05:43:57;;;;;;;7.73;3.50;;;;;;;15.08;83.08;100939.94;5072629;28;20463;-70
2023/05/11 05:46:23;;;;;;;12.20;4.67;;;;;;;15.17;82.34;100942.66;5073127;28;20483;-70
2023/05/11 05:48:50;;;;;;;13.27;4.60;;;;;;;15.26;81.55;100937.19;5072689;28;20544;-70
2023/05/11 05:51:17;;;;;;;8.43;3.60;;;;;;;15.35;80.64;100940.69;5073122;28;20867;-68
2023/05/11 05:53:43;;;;;;;13.10;4.43;;;;;;;15.46;79.51;100950.16;5073071;28;20441;-68
2023/05/11 05:56:10;;;;;;;9.13;4.03;;;;;;;15.53;78.92;100957.84;5073024;28;20437;-72
2023/05/11 05:58:36;;;;;;;9.60;4.30;;;;;;;15.60;79.25;100956.22;5072543;28;21055;-69
2023/05/11 06:01:05;;;;;;;13.87;5.07;;;;;;;15.69;79.11;100958.97;5073038;28;20446;-72
2023/05/11 06:03:31;;;;;;;11.07;4.37;;;;;;;15.76;78.80;100964.72;5072992;28;20477;-71
2023/05/11 06:05:58;;;;;;;11.10;4.60;;;;;;;15.88;78.03;100964.81;5072799;28;20477;-68
2023/05/11 06:08:24;;;;;;;12.30;4.37;;;;;;;15.95;77.65;100966.25;5072990;28;20472;-68
2023/05/11 06:10:51;;;;;;;8.97;4.27;;;;;;;16.02;76.56;100970.06;5072845;28;20491;-68
2023/05/11 06:13:18;;;;;;;9.17;3.80;;;;;;;16.07;76.65;100969.91;5072791;28;20536;-68
2023/05/11 06:15:44;;;;;;;15.33;3.60;;;;;;;16.20;76.74;100961.78;5072500;28;20445;-68
2023/05/11 06:18:12;;;;;;;8.07;3.77;;;;;;;16.32;75.51;100967.38;5072809;28;20532;-68
2023/05/11 06:20:39;;;;;;;10.07;4.50;;;;;;;16.39;74.75;100967.66;5072889;28;20485;-64
2023/05/11 06:23:05;;;;;;;7.57;3.30;;;;;;;16.45;73.53;100966.31;5072391;28;20449;-67
2023/05/11 06:25:33;;;;;;;12.13;3.80;;;;;;;16.55;72.45;100973.31;5072727;28;20438;-67
2023/05/11 06:28:00;;;;;;;7.80;3.70;;;;;;;16.63;71.89;100972.47;5072292;28;20568;-67
2023/05/11 06:30:27;;;;;;;9.90;3.70;;;;;;;16.68;72.28;100974.22;5072606;28;20542;-67
2023/05/11 06:32:53;;;;;;;6.43;2.80;;;;;;;16.73;72.60;100977.56;5072542;28;20450;-67
2023/05/11 06:35:21;;;;;;;11.43;4.17;;;;;;;16.83;71.27;100976.41;5072563;28;20528;-68
2023/05/11 06:37:48;;;;;;;8.10;3.07;;;;;;;16.92;71.00;100976.34;5072565;28;20446;-68
2023/05/11 06:40:15;;;;;;;8.23;3.20;;;;;;;16.94;70.30;100982.25;5072494;28;20465;-67
2023/05/11 06:42:42;;;;;;;7.50;3.33;;;;;;;17.02;69.14;100978.66;5072324;28;20466;-68
2023/05/11 06:45:09;;;;;;;8.17;3.20;;;;;;;17.07;69.02;100978.44;5072576;28;20608;-70
2023/05/11 06:47:36;;;;;;;8.10;3.60;;;;;;;17.12;70.28;100970.81;5072115;28;20481;-68
2023/05/11 06:50:03;;;;;;;7.97;3.30;;;;;;;17.19;68.38;100983.19;5073086;28;20466;-68
2023/05/11 06:52:31;;;;;;;7.27;3.10;;;;;;;17.22;68.14;100977.84;5076183;28;20475;-68
2023/05/11 06:54:58;;;;;;;7.63;2.80;;;;;;;17.29;67.66;100978.09;5076031;28;20441;-69
2023/05/11 06:57:24;;;;;;;6.83;2.30;;;;;;;17.38;66.20;100970.59;5075764;28;20957;-68
2023/05/11 06:59:51;;;;;;;8.37;2.90;;;;;;;17.55;63.12;100982.50;5075920;28;20467;-68
2023/05/11 07:02:17;;;;;;;8.33;2.80;;;;;;;17.61;62.41;100976.47;5076067;28;20528;-68
2023/05/11 07:04:44;;;;;;;6.73;2.87;;;;;;;17.63;64.12;100978.88;5075899;28;20479;-68
2023/05/11 07:07:11;;;;;;;5.70;2.30;;;;;;;17.72;63.75;100973.31;5075825;28;20483;-69
2023/05/11 07:09:39;;;;;;;6.70;2.50;;;;;;;17.80;63.00;100977.94;5075775;28;20472;-69
2023/05/11 07:12:06;;;;;;;6.77;3.00;;;;;;;17.84;61.02;100982.38;5075514;28;20473;-68
2023/05/11 07:14:32;;;;;;;7.27;2.63;;;;;;;17.80;62.23;100986.94;5075365;28;20444;-68
2023/05/11 07:16:59;;;;;;;11.87;2.73;;;;;;;17.85;60.55;100983.19;5075333;28;20445;-69
2023/05/11 07:19:26;;;;;;;7.10;2.80;;;;;;;17.92;60.96;100977.13;5075487;28;20516;-69
2023/05/11 07:21:52;;;;;;;6.97;2.83;;;;;;;17.98;60.35;100975.78;5075260;28;21022;-69
2023/05/11 07:24:19;;;;;;;7.33;2.87;;;;;;;18.05;61.11;100978.75;5075609;28;20477;-69
2023/05/11 07:26:47;;;;;;;6.03;2.50;;;;;;;18.09;59.72;100987.88;5075432;28;20488;-69
2023/05/11 07:29:14;;;;;;;9.43;2.70;;;;;;;18.24;58.72;100978.16;5075495;28;20886;-69
2023/05/11 07:31:41;;;;;;;6.40;2.90;;;;;;;18.36;57.89;100984.44;5075388;28;20528;-69
2023/05/11 07:34:08;;;;;;;6.37;2.60;;;;;;;18.48;57.88;100982.84;5075409;28;20437;-68
2023/05/11 07:36:35;;;;;;;6.40;2.40;;;;;;;18.58;57.58;100976.88;5075027;28;20441;-69
2023/05/11 07:39:01;;;;;;;6.47;2.17;;;;;;;18.62;58.58;100984.09;5075200;28;20561;-70
2023/05/11 07:41:28;;;;;;;6.13;2.50;;;;;;;18.71;59.05;100986.72;5075219;28;20533;-70
2023/05/11 07:43:56;;;;;;;7.13;2.73;;;;;;;18.80;57.81;100983.84;5074893;28;20536;-70
2023/05/11 07:46:23;;;;;;;9.17;2.80;;;;;;;18.80;58.80;100981.91;5075050;28;20819;-70
2023/05/11 07:48:49;;;;;;;5.40;2.00;;;;;;;18.90;55.48;100977.88;5075025;28;20501;-70
2023/05/11 07:51:16;;;;;;;6.73;2.70;;;;;;;18.94;56.07;100976.03;5074807;28;20441;-71
2023/05/11 07:53:43;;;;;;;12.40;1.93;;;;;;;18.97;57.35;100971.78;5074699;28;20443;-71
2023/05/11 07:56:09;;;;;;;6.30;2.33;;;;;;;19.07;57.39;100977.59;5074980;28;20453;-67
2023/05/11 07:58:36;;;;;;;6.23;2.33;;;;;;;19.13;57.25;100975.41;5074909;28;20437;-69
2023/05/11 08:01:04;;;;;;;5.03;1.77;;;;;;;19.15;55.99;100979.38;5074817;28;20874;-68
2023/05/11 08:03:31;;;;;;;7.03;2.23;;;;;;;19.23;56.52;100974.91;5074811;28;20499;-70
2023/05/11 08:05:58;;;;;;;7.00;2.37;;;;;;;19.30;57.10;100974.28;5074776;28;20449;-69
2023/05/11 08:08:25;;;;;;;8.70;2.30;;;;;;;19.35;57.17;100972.09;5074674;28;20491;-69
2023/05/11 08:10:51;;;;;;;7.63;2.10;;;;;;;19.48;56.56;100975.59;5074635;28;20473;-69
2023/05/11 08:13:18;;;;;;;7.87;2.30;;;;;;;19.55;54.02;100974.97;5074670;28;20794;-69
2023/05/11 08:15:45;;;;;;;5.80;1.87;;;;;;;19.63;54.73;100974.03;5074593;28;20865;-70
2023/05/11 08:18:13;;;;;;;7.27;2.50;;;;;;;19.74;53.55;100975.09;5074188;28;20960;-69
2023/05/11 08:20:40;;;;;;;5.97;2.27;;;;;;;19.79;53.20;100979.53;5074032;28;20500;-68
2023/05/11 08:23:08;;;;;;;12.77;1.90;;;;;;;19.80;53.54;100981.94;5074373;28;20445;-69
2023/05/11 08:25:34;;;;;;;6.90;2.40;;;;;;;19.89;53.52;100977.06;5074270;28;20442;-69
2023/05/11 08:28:01;;;;;;;5.40;1.90;;;;;;;19.99;52.61;100974.94;5074184;28;20489;-69
2023/05/11 08:30:27;;;;;;;6.50;2.43;;;;;;;20.00;53.32;100973.78;5074210;28;20516;-68
2023/05/11 08:32:54;;;;;;;5.20;1.97;;;;;;;20.00;53.10;100971.03;5074220;28;20444;-69
2023/05/11 08:35:23;;;;;;;5.27;1.80;;;;;;;20.07;52.76;100973.97;5074159;28;20598;-69
2023/05/11 08:37:49;;;;;;;5.70;2.00;;;;;;;20.22;52.05;100983.34;5073792;28;20492;-69
2023/05/11 08:40:19;;;;;;;5.53;1.90;;;;;;;20.27;52.12;100981.13;5074020;28;20881;-69
2023/05/11 08:42:48;;;;;;;5.97;1.87;;;;;;;20.41;50.44;100975.97;5073794;28;20544;-69
2023/05/11 08:45:15;;;;;;;6.17;2.33;;;;;;;20.58;50.79;100979.50;5073681;28;20490;-69
2023/05/11 08:47:42;;;;;;;6.40;2.07;;;;;;;20.62;50.25;100972.13;5073804;28;20492;-69
2023/05/11 08:50:09;;;;;;;6.67;2.33;;;;;;;20.64;52.12;100969.81;5073854;28;20472;-69
2023/05/11 08:52:37;;;;;;;5.70;2.10;;;;;;;20.63;50.99;100977.28;5073524;28;20967;-69
2023/05/11 08:55:04;;;;;;;5.70;1.80;;;;;;;20.77;51.27;100976.00;5073831;28;20469;-69
2023/05/11 08:57:31;;;;;;;7.10;2.30;;;;;;;20.86;49.80;100977.38;5073747;28;20441;-70
2023/05/11 09:00:01;;;;;;;5.70;1.80;;;;;;;20.95;51.13;100973.63;5073320;28;20477;-69
2023/05/11 09:02:28;;;;;;;5.80;1.80;;;;;;;20.97;50.41;100976.78;5073616;28;20441;-69
2023/05/11 09:04:57;;;;;;;5.27;1.60;;;;;;;21.04;50.20;100966.72;5073559;28;20437;-69
2023/05/11 09:07:26;;;;;;;12.10;2.10;;;;;;;21.08;51.35;100973.09;5073202;28;20520;-69
2023/05/11 09:09:55;;;;;;;5.90;2.17;;;;;;;21.22;50.70;100969.84;5073264;28;20445;-69
2023/05/11 09:12:24;;;;;;;7.40;1.90;;;;;;;21.36;50.68;100967.38;5073136;28;20960;-69
2023/05/11 09:14:51;;;;;;;8.30;2.53;;;;;;;21.42;48.87;100970.63;5072956;28;20463;-70
2023/05/11 09:17:18;;;;;;;5.70;1.97;;;;;;;21.47;49.39;100966.78;5073464;28;20437;-69
2023/05/11 09:19:58;;;;;;;8.60;1.77;;;;;;;21.56;49.22;100978.34;5073326;28;20467;-69
2023/05/11 09:22:25;;;;;;;6.77;2.23;;;;;;;21.73;47.42;100964.09;5073149;28;20429;-69
2023/05/11 09:24:53;;;;;;;5.10;1.70;;;;;;;21.77;48.18;100958.66;5073069;28;20533;-69
2023/05/11 09:27:24;;;;;;;6.43;2.40;;;;;;;21.87;48.51;100969.88;5072993;28;21012;-69
2023/05/11 09:29:53;;;;;;;6.23;1.83;;;;;;;21.88;46.52;100974.22;5073316;28;20461;-69
2023/05/11 09:32:19;;;;;;;5.77;1.80;;;;;;;21.89;45.76;100975.81;5073303;28;20537;-69
2023/05/11 09:34:46;;;;;;;5.97;2.03;;;;;;;21.89;46.91;100973.03;5073269;28;20471;-69
2023/05/11 09:37:16;;;;;;;6.50;1.70;;;;;;;21.89;46.63;100973.03;5073290;28;20441;-70
2023/05/11 09:39:43;;;;;;;4.70;1.50;;;;;;;21.97;44.92;100967.66;5072871;28;20816;-69
2023/05/11 09:42:15;;;;;;;6.00;1.90;;;;;;;22.16;44.02;100964.84;5073073;28;20449;-70
2023/05/11 09:44:43;;;;;;;7.83;1.73;;;;;;;22.24;41.72;100969.31;5073138;28;20437;-70
2023/05/11 09:47:14;;;;;;;7.43;1.60;;;;;;;22.21;42.91;100977.53;5073105;28;20452;-69
2023/05/11 09:49:42;;;;;;;4.30;1.00;;;;;;;22.24;42.13;100966.53;5073049;28;20457;-69
2023/05/11 09:52:10;;;;;;;5.77;1.93;;;;;;;22.27;43.85;100960.28;5073121;28;20444;-69
2023/05/11 09:54:42;;;;;;;5.50;1.60;;;;;;;22.28;44.02;100956.34;5073091;28;20506;-69
2023/05/11 09:57:24;;;;;;;5.77;1.80;;;;;;;22.45;42.34;100960.56;5073098;28;20433;-69
2023/05/11 09:59:51;;;;;;;5.30;1.80;;;;;;;22.44;42.26;100966.41;5072696;28;20450;-69
2023/05/11 10:02:21;;;;;;;5.50;1.50;;;;;;;22.50;42.91;100967.72;5072998;28;20447;-69
2023/05/11 10:04:48;;;;;;;6.53;1.93;;;;;;;22.65;43.37;100975.00;5072994;28;20499;-69
2023/05/11 10:07:25;;;;;;;4.60;1.20;;;;;;;22.83;43.31;100976.03;5072891;28;20448;-69
2023/05/11 10:09:53;;;;;;;5.10;1.43;;;;;;;22.94;41.13;100962.41;5072589;28;20494;-70
2023/05/11 10:12:24;;;;;;;5.03;1.40;;;;;;;22.98;41.21;100970.75;5072620;28;20931;-69
2023/05/11 10:14:55;;;;;;;5.57;1.40;;;;;;;22.97;41.76;100963.59;5073210;28;20437;-70
2023/05/11 10:17:22;;;;;;;4.97;1.60;;;;;;;23.06;41.69;100961.34;5072738;28;20417;-70
2023/05/11 10:19:49;;;;;;;5.73;1.60;;;;;;;22.92;42.17;100957.25;5072806;28;20550;-70
2023/05/11 10:22:17;;;;;;;6.60;2.00;;;;;;;23.04;41.90;100958.97;5072534;28;20540;-69
2023/05/11 10:24:44;;;;;;;5.00;1.60;;;;;;;23.20;42.29;100964.31;5073016;28;20444;-69
2023/05/11 10:27:11;;;;;;;5.53;1.70;;;;;;;23.43;41.76;100961.38;5076773;28;20440;-69
2023/05/11 10:29:38;;;;;;;5.87;2.00;;;;;;;23.51;40.95;100952.00;5076600;28;20461;-69
2023/05/11 10:32:08;;;;;;;6.60;1.50;;;;;;;23.74;42.23;100956.56;5076351;28;20472;-70
2023/05/11 10:34:34;;;;;;;5.90;1.70;;;;;;;23.82;40.76;100947.94;5076402;28;20441;-69
2023/05/11 10:37:01;;;;;;;4.77;1.30;;;;;;;23.88;40.97;100945.63;5076593;28;20453;-69
2023/05/11 10:39:29;;;;;;;7.77;1.50;;;;;;;24.03;40.59;100954.81;5076540;28;20460;-69
2023/05/11 10:42:10;;;;;;;5.90;1.50;;;;;;;23.98;39.58;100949.63;5076277;28;20502;-69
2023/05/11 10:45:08;;;;;;;5.70;2.03;;;;;;;24.09;41.21;100945.78;5076447;28;20445;-69
2023/05/11 10:47:56;;;;;;;5.77;1.90;;;;;;;24.13;39.75;100948.59;5069466;28;20480;-69
2023/05/11 10:50:38;;;;;;;5.10;1.40;;;;;;;24.23;38.96;100944.28;5076151;28;20476;-69
2023/05/11 10:53:35;;;;;;;4.70;1.33;;;;;;;24.47;37.63;100953.94;5076130;28;20915;-69
2023/05/11 10:56:21;;;;;;;4.90;1.20;;;;;;;24.69;38.40;100952.09;5076540;28;20469;-69
2023/05/11 10:59:29;;;;;;;5.73;1.80;;;;;;;24.83;37.37;100950.16;5076113;28;20479;-70
2023/05/11 11:02:00;;;;;;;5.23;1.73;;;;;;;24.84;36.54;100954.56;5058891;28;20958;-69
2023/05/11 11:04:42;;;;;;;4.57;1.17;;;;;;;24.88;37.86;100943.47;5075891;28;20432;-70
2023/05/11 11:07:10;;;;;;;5.03;1.30;;;;;;;24.86;37.26;100949.41;5076122;28;20442;-68
2023/05/11 11:09:51;;;;;;;4.87;1.20;;;;;;;25.06;36.36;100957.41;5075570;28;20870;-69
2023/05/11 11:12:18;;;;;;;4.60;1.43;;;;;;;25.12;36.58;100958.63;5075573;28;20461;-68
2023/05/11 11:14:56;;;;;;;4.73;1.13;;;;;;;24.76;35.83;100955.69;5075958;28;20503;-68
2023/05/11 11:17:25;;;;;;;4.63;1.30;;;;;;;24.74;37.01;100958.06;5075858;28;20477;-69
2023/05/11 11:19:53;;;;;;;5.80;1.83;;;;;;;25.15;36.25;100955.88;5075588;28;20501;-69
2023/05/11 11:22:43;;;;;;;4.90;1.60;;;;;;;25.94;35.59;100949.66;5075357;28;20480;-69
2023/05/11 11:25:10;;;;;;;4.60;1.20;;;;;;;26.71;36.01;100945.16;5075711;28;20464;-69
2023/05/11 11:27:55;;;;;;;4.83;1.13;;;;;;;26.51;34.53;100946.81;5075430;28;20442;-71